createdAt,value
2019-04-14T00:00:03.329Z,75.8
2019-04-14T00:01:00.621Z,75.4
2019-04-14T00:02:00.907Z,75.3
2019-04-14T00:02:31.715Z,75.3
2019-04-14T00:03:00.684Z,75.4
2019-04-14T00:03:31.055Z,75.4
2019-04-14T00:04:02.955Z,75.3
2019-04-14T00:04:33.624Z,75.3
2019-04-14T00:05:04.213Z,75.5
2019-04-14T00:05:36.887Z,75.5
2019-04-14T00:06:05.064Z,75.4
2019-04-14T00:06:35.352Z,75.4
2019-04-14T00:07:54.123Z,75.7
2019-04-14T00:08:52.881Z,76.4
2019-04-14T00:09:52.317Z,76.2
2019-04-14T00:10:51.076Z,76.3
2019-04-14T00:11:50.756Z,76.4
2019-04-14T00:12:49.564Z,76.3
2019-04-14T00:13:19.851Z,76.3
2019-04-14T00:13:50.510Z,76.2
2019-04-14T00:14:21.092Z,76.2
2019-04-14T00:14:51.656Z,75.3
2019-04-14T00:15:37.728Z,75.3
2019-04-14T00:15:56.910Z,75.3
2019-04-14T00:16:27.303Z,75.3
2019-04-14T00:17:43.944Z,74.8
2019-04-14T00:18:42.926Z,74.8
2019-04-14T00:19:43.145Z,74.8
2019-04-14T00:20:41.079Z,74.7
2019-04-14T00:21:41.335Z,75.1
2019-04-14T00:22:38.838Z,74.8
2019-04-14T00:23:39.290Z,74.9
2019-04-14T00:24:09.696Z,74.9
2019-04-14T00:24:39.958Z,74.7
2019-04-14T00:25:10.705Z,74.7
2019-04-14T00:25:41.443Z,74.6
2019-04-14T00:26:11.784Z,74.6
2019-04-14T00:27:34.821Z,74.8
2019-04-14T00:28:33.858Z,75
2019-04-14T00:29:33.163Z,75.2
2019-04-14T00:30:31.904Z,75.2
2019-04-14T00:31:31.062Z,75.3
2019-04-14T00:32:29.345Z,75.4
2019-04-14T00:33:28.368Z,76
2019-04-14T00:34:27.105Z,76
2019-04-14T00:34:57.544Z,76
2019-04-14T00:35:28.108Z,75.7
2019-04-14T00:35:58.382Z,75.7
2019-04-14T00:36:28.929Z,76
2019-04-14T00:36:59.205Z,76
2019-04-14T00:37:29.759Z,76.3
2019-04-14T00:38:24.163Z,76.1
2019-04-14T00:39:22.934Z,76.2
2019-04-14T00:40:21.866Z,76.5
2019-04-14T00:40:52.072Z,76.5
2019-04-14T00:41:43.533Z,76.5
2019-04-14T00:42:08.184Z,76.5
2019-04-14T00:42:36.751Z,76.6
2019-04-14T00:43:18.290Z,76.7
2019-04-14T00:44:17.380Z,76.8
2019-04-14T00:45:15.921Z,76.7
2019-04-14T00:45:54.986Z,76.7
2019-04-14T00:46:17.110Z,76.6
2019-04-14T00:47:14.105Z,76.9
2019-04-14T00:48:19.304Z,77
2019-04-14T00:49:11.981Z,76.9
2019-04-14T00:50:11.125Z,76.6
2019-04-14T00:50:41.464Z,76.6
2019-04-14T00:51:13.302Z,76.6
2019-04-14T00:52:10.303Z,76.6
2019-04-14T00:53:08.166Z,76.8
2019-04-14T00:54:07.120Z,77
2019-04-14T00:55:07.698Z,76.4
2019-04-14T00:55:37.881Z,76.4
2019-04-14T00:56:08.575Z,76.4
2019-04-14T00:56:39.125Z,76.4
2019-04-14T00:57:09.629Z,76.6
2019-04-14T00:58:04.119Z,76.4
2019-04-14T00:59:03.064Z,76.4
2019-04-14T01:00:02.085Z,76.4
2019-04-14T01:00:32.325Z,76.4
2019-04-14T01:01:03.003Z,76.6
2019-04-14T01:01:33.216Z,76.6
2019-04-14T01:02:03.675Z,76.4
2019-04-14T01:02:58.291Z,76.3
2019-04-14T01:03:57.296Z,76.4
2019-04-14T01:04:56.275Z,76.4
2019-04-14T01:05:55.265Z,76.8
2019-04-14T01:06:53.996Z,76.6
2019-04-14T01:07:54.328Z,76.9
2019-04-14T01:08:53.211Z,76.8
2019-04-14T01:09:51.367Z,77.3
2019-04-14T01:10:21.666Z,77.3
2019-04-14T01:10:52.284Z,77.4
2019-04-14T01:11:22.641Z,77.4
2019-04-14T01:11:53.414Z,76.9
2019-04-14T01:12:23.800Z,76.9
2019-04-14T01:12:54.203Z,76.9
2019-04-14T01:13:48.530Z,77
2019-04-14T01:14:47.606Z,77.1
2019-04-14T01:16:05.120Z,77.2
2019-04-14T01:16:29.525Z,77.2
2019-04-14T01:17:44.169Z,77.5
2019-04-14T01:19:41.965Z,77.7
2019-04-14T01:20:12.729Z,77.7
2019-04-14T01:20:42.734Z,77.5
2019-04-14T01:21:13.059Z,77.5
2019-04-14T01:22:38.418Z,77.8
2019-04-14T01:23:37.346Z,78.1
2019-04-14T01:24:36.282Z,78
2019-04-14T01:25:35.356Z,78.1
2019-04-14T01:26:35.536Z,78
2019-04-14T01:27:34.428Z,77.4
2019-04-14T01:28:33.215Z,77.5
2019-04-14T01:29:32.296Z,77.4
2019-04-14T01:30:02.917Z,77.4
2019-04-14T01:30:33.002Z,77.6
2019-04-14T01:31:03.607Z,77.6
2019-04-14T01:31:33.791Z,78
2019-04-14T01:32:04.416Z,78
2019-04-14T01:33:27.545Z,77.9
2019-04-14T01:35:25.253Z,77.8
2019-04-14T01:36:25.502Z,77.7
2019-04-14T01:37:23.097Z,78.2
2019-04-14T01:38:23.231Z,78.3
2019-04-14T01:39:22.462Z,78.1
2019-04-14T01:39:52.796Z,78.1
2019-04-14T01:40:23.098Z,78
2019-04-14T01:40:53.442Z,78
2019-04-14T01:41:24.167Z,78
2019-04-14T01:41:54.564Z,78
2019-04-14T01:42:24.821Z,78.2
2019-04-14T01:42:55.174Z,78.2
2019-04-14T01:45:16.346Z,78.5
2019-04-14T01:46:25.872Z,79.1
2019-04-14T01:46:45.373Z,79.1
2019-04-14T01:47:16.195Z,78.9
2019-04-14T01:48:12.907Z,78.9
2019-04-14T01:49:11.805Z,78.9
2019-04-14T01:49:42.149Z,78.9
2019-04-14T01:50:13.033Z,78.8
2019-04-14T01:50:43.316Z,78.8
2019-04-14T01:51:13.812Z,78.8
2019-04-14T01:51:44.513Z,78.8
2019-04-14T01:52:14.857Z,78.7
2019-04-14T01:52:45.852Z,78.7
2019-04-14T01:53:16.342Z,78.7
2019-04-14T01:53:46.681Z,78.7
2019-04-14T01:55:04.998Z,79.1
2019-04-14T01:56:04.122Z,79.1
2019-04-14T01:57:03.007Z,79.1
2019-04-14T01:58:02.928Z,79
2019-04-14T01:59:02.427Z,78.9
2019-04-14T01:59:32.886Z,78.9
2019-04-14T02:00:03.504Z,78.8
2019-04-14T02:00:33.952Z,78.8
2019-04-14T02:01:04.413Z,78.8
2019-04-14T02:01:34.852Z,78.8
2019-04-14T02:02:05.351Z,78.9
2019-04-14T02:02:35.991Z,78.9
2019-04-14T02:03:06.390Z,79
2019-04-14T02:03:36.869Z,79
2019-04-14T02:04:55.637Z,79.4
2019-04-14T02:05:54.230Z,79.3
2019-04-14T02:06:53.158Z,79.2
2019-04-14T02:07:53.652Z,79.7
2019-04-14T02:08:52.508Z,79.5
2019-04-14T02:09:51.375Z,79.6
2019-04-14T02:10:21.961Z,79.6
2019-04-14T02:10:52.321Z,79.6
2019-04-14T02:11:22.849Z,79.6
2019-04-14T02:11:53.355Z,79.5
2019-04-14T02:12:23.796Z,79.5
2019-04-14T02:12:54.571Z,79.6
2019-04-14T02:13:24.956Z,79.6
2019-04-14T02:14:45.477Z,79.8
2019-04-14T02:15:44.537Z,79.8
2019-04-14T02:16:55.310Z,79.9
2019-04-14T02:17:15.251Z,79.9
2019-04-14T02:17:45.902Z,79.9
2019-04-14T02:18:42.619Z,79.9
2019-04-14T02:19:40.069Z,80.1
2019-04-14T02:20:10.502Z,80.1
2019-04-14T02:20:40.993Z,80.6
2019-04-14T02:21:12.712Z,80.6
2019-04-14T02:21:41.896Z,80.6
2019-04-14T02:22:12.291Z,80.6
2019-04-14T02:22:43.999Z,80.8
2019-04-14T02:23:13.166Z,80.8
2019-04-14T02:24:35.483Z,81.1
2019-04-14T02:25:34.202Z,81.2
2019-04-14T02:26:33.334Z,81.1
2019-04-14T02:27:32.044Z,80.9
2019-04-14T02:28:31.324Z,80.6
2019-04-14T02:29:30.102Z,80.5
2019-04-14T02:30:44.054Z,80.6
2019-04-14T02:33:31.687Z,80.6
2019-04-14T02:37:19.045Z,80.6
2019-04-14T02:54:49.839Z,80.6
